sensor_id;sensor_type;location;lat;lon;timestamp;temperature;humidity
19192;DHT22;9728;48.194;16.346;2023-12-20T00:02:47;11.30;65.00
19192;DHT22;9728;48.194;16.346;2023-12-20T00:07:51;11.20;65.00
19192;DHT22;9728;48.194;16.346;2023-12-20T00:12:54;11.10;65.00
19192;DHT22;9728;48.194;16.346;2023-12-20T00:17:59;11.10;64.90
19192;DHT22;9728;48.194;16.346;2023-12-20T00:23:03;11.10;65.00
19192;DHT22;9728;48.194;16.346;2023-12-20T00:28:07;11.00;64.90
19192;DHT22;9728;48.194;16.346;2023-12-20T00:33:11;11.00;64.90
19192;DHT22;9728;48.194;16.346;2023-12-20T00:38:15;10.90;65.00
19192;DHT22;9728;48.194;16.346;2023-12-20T00:43:18;10.90;65.00
19192;DHT22;9728;48.194;16.346;2023-12-20T00:48:23;10.80;65.00
19192;DHT22;9728;48.194;16.346;2023-12-20T00:53:28;10.70;65.10
19192;DHT22;9728;48.194;16.346;2023-12-20T00:58:32;10.70;65.20
19192;DHT22;9728;48.194;16.346;2023-12-20T01:03:36;10.70;65.30
19192;DHT22;9728;48.194;16.346;2023-12-20T01:08:40;10.70;65.50
19192;DHT22;9728;48.194;16.346;2023-12-20T01:13:43;10.60;65.50
19192;DHT22;9728;48.194;16.346;2023-12-20T01:18:48;10.60;65.70
19192;DHT22;9728;48.194;16.346;2023-12-20T01:23:52;10.70;65.90
19192;DHT22;9728;48.194;16.346;2023-12-20T01:28:55;10.60;65.80
19192;DHT22;9728;48.194;16.346;2023-12-20T01:34:00;10.60;65.90
19192;DHT22;9728;48.194;16.346;2023-12-20T01:39:04;10.70;66.20
19192;DHT22;9728;48.194;16.346;2023-12-20T01:44:21;10.70;66.00
19192;DHT22;9728;48.194;16.346;2023-12-20T01:49:26;10.70;66.00
19192;DHT22;9728;48.194;16.346;2023-12-20T01:54:30;10.70;66.10
19192;DHT22;9728;48.194;16.346;2023-12-20T01:59:34;10.70;65.90
19192;DHT22;9728;48.194;16.346;2023-12-20T02:04:39;10.70;66.00
19192;DHT22;9728;48.194;16.346;2023-12-20T02:09:43;10.60;66.00
19192;DHT22;9728;48.194;16.346;2023-12-20T02:14:47;10.60;66.00
19192;DHT22;9728;48.194;16.346;2023-12-20T02:19:52;10.70;66.10
19192;DHT22;9728;48.194;16.346;2023-12-20T02:24:56;10.60;66.10
19192;DHT22;9728;48.194;16.346;2023-12-20T02:30:00;10.60;66.10
19192;DHT22;9728;48.194;16.346;2023-12-20T02:35:04;10.70;66.20
19192;DHT22;9728;48.194;16.346;2023-12-20T02:40:09;10.70;66.20
19192;DHT22;9728;48.194;16.346;2023-12-20T02:45:13;10.70;66.30
19192;DHT22;9728;48.194;16.346;2023-12-20T02:50:16;10.70;66.10
19192;DHT22;9728;48.194;16.346;2023-12-20T02:55:21;10.70;66.10
19192;DHT22;9728;48.194;16.346;2023-12-20T03:00:24;10.70;66.30
19192;DHT22;9728;48.194;16.346;2023-12-20T03:05:27;10.70;66.10
19192;DHT22;9728;48.194;16.346;2023-12-20T03:10:32;10.70;66.00
19192;DHT22;9728;48.194;16.346;2023-12-20T03:15:36;10.70;65.90
19192;DHT22;9728;48.194;16.346;2023-12-20T03:20:39;10.80;65.90
19192;DHT22;9728;48.194;16.346;2023-12-20T03:25:45;10.80;65.80
19192;DHT22;9728;48.194;16.346;2023-12-20T03:30:48;10.80;65.80
19192;DHT22;9728;48.194;16.346;2023-12-20T03:35:51;10.80;65.60
19192;DHT22;9728;48.194;16.346;2023-12-20T03:40:56;10.90;65.50
19192;DHT22;9728;48.194;16.346;2023-12-20T03:45:59;10.90;65.30
19192;DHT22;9728;48.194;16.346;2023-12-20T03:51:02;10.90;65.30
19192;DHT22;9728;48.194;16.346;2023-12-20T03:56:07;10.90;65.30
19192;DHT22;9728;48.194;16.346;2023-12-20T04:01:11;10.90;65.30
19192;DHT22;9728;48.194;16.346;2023-12-20T04:06:17;11.00;65.40
19192;DHT22;9728;48.194;16.346;2023-12-20T04:11:21;11.00;65.40
19192;DHT22;9728;48.194;16.346;2023-12-20T04:16:25;11.00;65.40
19192;DHT22;9728;48.194;16.346;2023-12-20T04:21:28;11.10;65.40
19192;DHT22;9728;48.194;16.346;2023-12-20T04:26:33;11.10;65.30
19192;DHT22;9728;48.194;16.346;2023-12-20T04:31:36;11.10;65.20
19192;DHT22;9728;48.194;16.346;2023-12-20T04:36:39;11.10;65.00
19192;DHT22;9728;48.194;16.346;2023-12-20T04:41:44;11.10;64.80
19192;DHT22;9728;48.194;16.346;2023-12-20T04:46:49;11.10;64.70
19192;DHT22;9728;48.194;16.346;2023-12-20T04:51:52;11.10;64.70
19192;DHT22;9728;48.194;16.346;2023-12-20T04:56:57;11.10;64.60
19192;DHT22;9728;48.194;16.346;2023-12-20T05:02:00;11.10;64.60
19192;DHT22;9728;48.194;16.346;2023-12-20T05:07:04;11.10;64.70
19192;DHT22;9728;48.194;16.346;2023-12-20T05:12:10;11.10;65.20
19192;DHT22;9728;48.194;16.346;2023-12-20T05:17:13;11.20;65.80
19192;DHT22;9728;48.194;16.346;2023-12-20T05:22:16;11.20;66.30
19192;DHT22;9728;48.194;16.346;2023-12-20T05:27:21;11.40;66.80
19192;DHT22;9728;48.194;16.346;2023-12-20T05:32:25;11.50;67.30
19192;DHT22;9728;48.194;16.346;2023-12-20T05:37:28;11.70;67.30
19192;DHT22;9728;48.194;16.346;2023-12-20T05:42:33;11.90;67.40
19192;DHT22;9728;48.194;16.346;2023-12-20T05:47:36;12.10;67.60
19192;DHT22;9728;48.194;16.346;2023-12-20T05:52:39;12.30;67.50
19192;DHT22;9728;48.194;16.346;2023-12-20T05:57:44;12.50;68.40
19192;DHT22;9728;48.194;16.346;2023-12-20T06:02:48;12.70;68.20
19192;DHT22;9728;48.194;16.346;2023-12-20T06:07:51;12.80;67.80
19192;DHT22;9728;48.194;16.346;2023-12-20T06:12:56;13.00;67.70
19192;DHT22;9728;48.194;16.346;2023-12-20T06:18:01;13.20;68.00
19192;DHT22;9728;48.194;16.346;2023-12-20T06:23:04;13.40;67.70
19192;DHT22;9728;48.194;16.346;2023-12-20T06:28:09;13.60;67.50
19192;DHT22;9728;48.194;16.346;2023-12-20T06:33:16;13.70;67.20
19192;DHT22;9728;48.194;16.346;2023-12-20T06:38:21;13.90;67.00
19192;DHT22;9728;48.194;16.346;2023-12-20T06:43:26;14.00;66.80
19192;DHT22;9728;48.194;16.346;2023-12-20T06:48:47;14.10;66.70
19192;DHT22;9728;48.194;16.346;2023-12-20T06:53:51;14.20;66.50
19192;DHT22;9728;48.194;16.346;2023-12-20T06:58:55;14.20;66.40
19192;DHT22;9728;48.194;16.346;2023-12-20T07:03:59;14.30;66.30
19192;DHT22;9728;48.194;16.346;2023-12-20T07:09:02;14.40;66.30
19192;DHT22;9728;48.194;16.346;2023-12-20T07:14:07;14.50;66.30
19192;DHT22;9728;48.194;16.346;2023-12-20T07:19:10;14.50;66.10
19192;DHT22;9728;48.194;16.346;2023-12-20T07:24:14;14.60;66.10
19192;DHT22;9728;48.194;16.346;2023-12-20T07:29:18;14.60;66.00
19192;DHT22;9728;48.194;16.346;2023-12-20T07:34:22;14.70;66.00
19192;DHT22;9728;48.194;16.346;2023-12-20T07:39:25;14.80;66.20
19192;DHT22;9728;48.194;16.346;2023-12-20T07:44:30;14.90;66.20
19192;DHT22;9728;48.194;16.346;2023-12-20T07:49:33;14.90;66.10
19192;DHT22;9728;48.194;16.346;2023-12-20T07:54:37;15.00;66.10
19192;DHT22;9728;48.194;16.346;2023-12-20T07:59:42;15.00;65.90
19192;DHT22;9728;48.194;16.346;2023-12-20T08:04:46;14.90;65.90
19192;DHT22;9728;48.194;16.346;2023-12-20T08:09:49;14.80;65.80
19192;DHT22;9728;48.194;16.346;2023-12-20T08:14:55;14.80;66.00
19192;DHT22;9728;48.194;16.346;2023-12-20T08:19:59;14.70;66.00
19192;DHT22;9728;48.194;16.346;2023-12-20T08:25:03;14.70;66.00
19192;DHT22;9728;48.194;16.346;2023-12-20T08:30:09;14.60;66.00
19192;DHT22;9728;48.194;16.346;2023-12-20T08:35:13;14.60;66.10
19192;DHT22;9728;48.194;16.346;2023-12-20T08:40:16;14.50;66.10
19192;DHT22;9728;48.194;16.346;2023-12-20T08:45:21;14.50;66.10
19192;DHT22;9728;48.194;16.346;2023-12-20T08:50:24;14.50;66.30
19192;DHT22;9728;48.194;16.346;2023-12-20T08:55:28;14.40;66.30
19192;DHT22;9728;48.194;16.346;2023-12-20T09:00:35;14.30;66.30
19192;DHT22;9728;48.194;16.346;2023-12-20T09:05:38;14.30;66.50
19192;DHT22;9728;48.194;16.346;2023-12-20T09:10:41;14.30;66.50
19192;DHT22;9728;48.194;16.346;2023-12-20T09:15:47;14.30;66.50
19192;DHT22;9728;48.194;16.346;2023-12-20T09:20:51;14.20;66.80
19192;DHT22;9728;48.194;16.346;2023-12-20T09:25:54;14.20;66.90
19192;DHT22;9728;48.194;16.346;2023-12-20T09:31:00;14.20;67.10
19192;DHT22;9728;48.194;16.346;2023-12-20T09:36:04;14.20;68.20
19192;DHT22;9728;48.194;16.346;2023-12-20T09:41:08;14.20;67.30
19192;DHT22;9728;48.194;16.346;2023-12-20T09:46:16;14.20;68.00
19192;DHT22;9728;48.194;16.346;2023-12-20T09:51:22;14.20;67.50
19192;DHT22;9728;48.194;16.346;2023-12-20T09:56:26;14.30;67.30
19192;DHT22;9728;48.194;16.346;2023-12-20T10:01:34;14.20;67.20
19192;DHT22;9728;48.194;16.346;2023-12-20T10:06:39;14.10;67.60
19192;DHT22;9728;48.194;16.346;2023-12-20T10:11:43;14.00;67.60
19192;DHT22;9728;48.194;16.346;2023-12-20T10:16:47;13.90;67.80
19192;DHT22;9728;48.194;16.346;2023-12-20T10:21:51;13.90;68.00
19192;DHT22;9728;48.194;16.346;2023-12-20T10:27:01;13.80;67.90
19192;DHT22;9728;48.194;16.346;2023-12-20T10:32:23;13.80;68.50
19192;DHT22;9728;48.194;16.346;2023-12-20T10:37:27;13.70;68.70
19192;DHT22;9728;48.194;16.346;2023-12-20T10:42:31;13.70;69.10
19192;DHT22;9728;48.194;16.346;2023-12-20T10:47:37;13.80;68.40
19192;DHT22;9728;48.194;16.346;2023-12-20T10:52:42;13.70;68.40
19192;DHT22;9728;48.194;16.346;2023-12-20T10:57:49;13.80;68.40
19192;DHT22;9728;48.194;16.346;2023-12-20T11:02:55;13.80;68.50
19192;DHT22;9728;48.194;16.346;2023-12-20T11:08:07;13.70;68.60
19192;DHT22;9728;48.194;16.346;2023-12-20T11:13:16;13.70;68.90
19192;DHT22;9728;48.194;16.346;2023-12-20T11:18:28;13.60;69.10
19192;DHT22;9728;48.194;16.346;2023-12-20T11:23:32;13.60;69.40
19192;DHT22;9728;48.194;16.346;2023-12-20T11:28:37;13.60;69.00
19192;DHT22;9728;48.194;16.346;2023-12-20T11:33:42;13.60;69.10
19192;DHT22;9728;48.194;16.346;2023-12-20T11:38:54;13.60;69.20
19192;DHT22;9728;48.194;16.346;2023-12-20T11:43:59;13.70;69.70
19192;DHT22;9728;48.194;16.346;2023-12-20T11:49:06;13.70;69.30
19192;DHT22;9728;48.194;16.346;2023-12-20T11:54:10;13.70;69.30
19192;DHT22;9728;48.194;16.346;2023-12-20T11:59:13;13.80;69.30
19192;DHT22;9728;48.194;16.346;2023-12-20T12:04:26;13.70;69.30
19192;DHT22;9728;48.194;16.346;2023-12-20T12:09:30;13.80;69.40
19192;DHT22;9728;48.194;16.346;2023-12-20T12:14:33;13.90;69.40
19192;DHT22;9728;48.194;16.346;2023-12-20T12:19:40;13.90;69.30
19192;DHT22;9728;48.194;16.346;2023-12-20T12:24:44;14.00;69.50
19192;DHT22;9728;48.194;16.346;2023-12-20T12:30:01;14.00;69.40
19192;DHT22;9728;48.194;16.346;2023-12-20T12:35:08;14.10;69.80
19192;DHT22;9728;48.194;16.346;2023-12-20T12:40:12;14.20;69.50
19192;DHT22;9728;48.194;16.346;2023-12-20T12:45:16;14.20;69.30
19192;DHT22;9728;48.194;16.346;2023-12-20T12:50:21;14.30;69.30
19192;DHT22;9728;48.194;16.346;2023-12-20T12:55:25;14.30;69.30
19192;DHT22;9728;48.194;16.346;2023-12-20T13:00:29;14.20;70.00
19192;DHT22;9728;48.194;16.346;2023-12-20T13:05:33;14.30;69.20
19192;DHT22;9728;48.194;16.346;2023-12-20T13:10:41;14.30;69.20
19192;DHT22;9728;48.194;16.346;2023-12-20T13:15:47;14.40;69.40
19192;DHT22;9728;48.194;16.346;2023-12-20T13:20:56;14.50;70.40
19192;DHT22;9728;48.194;16.346;2023-12-20T13:25:59;14.60;69.90
19192;DHT22;9728;48.194;16.346;2023-12-20T13:31:03;14.70;71.40
19192;DHT22;9728;48.194;16.346;2023-12-20T13:36:08;14.80;71.40
19192;DHT22;9728;48.194;16.346;2023-12-20T13:41:12;15.00;70.40
19192;DHT22;9728;48.194;16.346;2023-12-20T13:46:15;15.10;71.50
19192;DHT22;9728;48.194;16.346;2023-12-20T13:51:20;15.20;70.70
19192;DHT22;9728;48.194;16.346;2023-12-20T13:56:24;15.30;69.70
19192;DHT22;9728;48.194;16.346;2023-12-20T14:01:27;15.30;70.10
19192;DHT22;9728;48.194;16.346;2023-12-20T14:06:32;15.30;68.80
19192;DHT22;9728;48.194;16.346;2023-12-20T14:11:35;15.30;68.50
19192;DHT22;9728;48.194;16.346;2023-12-20T14:16:43;15.20;68.40
19192;DHT22;9728;48.194;16.346;2023-12-20T14:21:48;15.20;68.40
19192;DHT22;9728;48.194;16.346;2023-12-20T14:26:51;15.10;68.40
19192;DHT22;9728;48.194;16.346;2023-12-20T14:31:55;15.10;68.30
19192;DHT22;9728;48.194;16.346;2023-12-20T14:37:00;15.10;68.10
19192;DHT22;9728;48.194;16.346;2023-12-20T14:42:03;15.10;68.10
19192;DHT22;9728;48.194;16.346;2023-12-20T14:47:07;15.10;68.10
19192;DHT22;9728;48.194;16.346;2023-12-20T14:52:12;15.00;68.00
19192;DHT22;9728;48.194;16.346;2023-12-20T14:57:15;15.00;68.10
19192;DHT22;9728;48.194;16.346;2023-12-20T15:02:20;14.90;68.00
19192;DHT22;9728;48.194;16.346;2023-12-20T15:07:25;14.80;68.10
19192;DHT22;9728;48.194;16.346;2023-12-20T15:12:29;14.80;68.20
19192;DHT22;9728;48.194;16.346;2023-12-20T15:17:32;14.70;68.20
19192;DHT22;9728;48.194;16.346;2023-12-20T15:22:39;14.70;68.30
19192;DHT22;9728;48.194;16.346;2023-12-20T15:27:43;14.70;68.40
19192;DHT22;9728;48.194;16.346;2023-12-20T15:32:48;14.70;68.40
19192;DHT22;9728;48.194;16.346;2023-12-20T15:37:53;14.70;68.50
19192;DHT22;9728;48.194;16.346;2023-12-20T15:42:56;14.60;68.40
19192;DHT22;9728;48.194;16.346;2023-12-20T15:48:01;14.60;68.40
19192;DHT22;9728;48.194;16.346;2023-12-20T15:53:07;14.60;68.60
19192;DHT22;9728;48.194;16.346;2023-12-20T15:58:10;14.60;68.60
19192;DHT22;9728;48.194;16.346;2023-12-20T16:03:13;14.60;68.60
19192;DHT22;9728;48.194;16.346;2023-12-20T16:08:28;14.60;68.60
19192;DHT22;9728;48.194;16.346;2023-12-20T16:13:31;14.60;68.60
19192;DHT22;9728;48.194;16.346;2023-12-20T16:18:34;14.60;68.60
19192;DHT22;9728;48.194;16.346;2023-12-20T16:23:39;14.50;68.60
19192;DHT22;9728;48.194;16.346;2023-12-20T16:28:43;14.50;68.70
19192;DHT22;9728;48.194;16.346;2023-12-20T16:33:46;14.50;68.70
19192;DHT22;9728;48.194;16.346;2023-12-20T16:38:51;14.50;68.70
19192;DHT22;9728;48.194;16.346;2023-12-20T16:43:55;14.50;68.70
19192;DHT22;9728;48.194;16.346;2023-12-20T16:48:58;14.50;68.70
19192;DHT22;9728;48.194;16.346;2023-12-20T16:54:03;14.50;68.90
19192;DHT22;9728;48.194;16.346;2023-12-20T16:59:06;14.50;69.80
19192;DHT22;9728;48.194;16.346;2023-12-20T17:04:10;14.50;68.80
19192;DHT22;9728;48.194;16.346;2023-12-20T17:09:14;14.50;70.60
19192;DHT22;9728;48.194;16.346;2023-12-20T17:14:18;14.60;70.10
19192;DHT22;9728;48.194;16.346;2023-12-20T17:19:21;14.70;69.40
19192;DHT22;9728;48.194;16.346;2023-12-20T17:24:27;14.70;68.80
19192;DHT22;9728;48.194;16.346;2023-12-20T17:29:30;14.80;69.30
19192;DHT22;9728;48.194;16.346;2023-12-20T17:34:34;14.70;68.60
19192;DHT22;9728;48.194;16.346;2023-12-20T17:39:40;14.80;68.40
19192;DHT22;9728;48.194;16.346;2023-12-20T17:44:45;14.70;68.00
19192;DHT22;9728;48.194;16.346;2023-12-20T17:49:48;14.70;67.80
19192;DHT22;9728;48.194;16.346;2023-12-20T17:54:53;14.70;67.90
19192;DHT22;9728;48.194;16.346;2023-12-20T18:00:11;14.70;68.10
19192;DHT22;9728;48.194;16.346;2023-12-20T18:05:16;14.70;67.70
19192;DHT22;9728;48.194;16.346;2023-12-20T18:10:23;14.70;68.10
19192;DHT22;9728;48.194;16.346;2023-12-20T18:15:29;14.70;67.70
19192;DHT22;9728;48.194;16.346;2023-12-20T18:20:34;14.60;67.30
19192;DHT22;9728;48.194;16.346;2023-12-20T18:25:41;14.50;67.40
19192;DHT22;9728;48.194;16.346;2023-12-20T18:30:46;14.50;67.40
19192;DHT22;9728;48.194;16.346;2023-12-20T18:35:51;14.30;67.00
19192;DHT22;9728;48.194;16.346;2023-12-20T18:40:57;14.20;67.80
19192;DHT22;9728;48.194;16.346;2023-12-20T18:46:03;14.10;67.90
19192;DHT22;9728;48.194;16.346;2023-12-20T18:51:08;14.00;68.00
19192;DHT22;9728;48.194;16.346;2023-12-20T18:56:15;14.00;68.20
19192;DHT22;9728;48.194;16.346;2023-12-20T19:01:21;14.10;68.40
19192;DHT22;9728;48.194;16.346;2023-12-20T19:06:26;14.20;68.50
19192;DHT22;9728;48.194;16.346;2023-12-20T19:11:33;14.30;68.10
19192;DHT22;9728;48.194;16.346;2023-12-20T19:16:38;14.40;67.70
19192;DHT22;9728;48.194;16.346;2023-12-20T19:21:45;14.40;67.50
19192;DHT22;9728;48.194;16.346;2023-12-20T19:26:52;14.40;67.20
19192;DHT22;9728;48.194;16.346;2023-12-20T19:32:00;14.30;67.00
19192;DHT22;9728;48.194;16.346;2023-12-20T19:37:05;14.20;67.00
19192;DHT22;9728;48.194;16.346;2023-12-20T19:42:13;14.10;67.00
19192;DHT22;9728;48.194;16.346;2023-12-20T19:47:19;14.10;67.00
19192;DHT22;9728;48.194;16.346;2023-12-20T19:52:27;14.00;67.20
19192;DHT22;9728;48.194;16.346;2023-12-20T19:57:35;14.00;67.10
19192;DHT22;9728;48.194;16.346;2023-12-20T20:02:41;13.80;67.30
19192;DHT22;9728;48.194;16.346;2023-12-20T20:07:47;14.00;67.50
19192;DHT22;9728;48.194;16.346;2023-12-20T20:12:57;14.10;66.90
19192;DHT22;9728;48.194;16.346;2023-12-20T20:18:05;14.10;66.50
19192;DHT22;9728;48.194;16.346;2023-12-20T20:23:13;14.10;66.10
19192;DHT22;9728;48.194;16.346;2023-12-20T20:28:20;14.00;66.00
19192;DHT22;9728;48.194;16.346;2023-12-20T20:33:28;13.80;65.90
19192;DHT22;9728;48.194;16.346;2023-12-20T20:38:34;13.70;66.10
19192;DHT22;9728;48.194;16.346;2023-12-20T20:43:41;13.60;66.20
19192;DHT22;9728;48.194;16.346;2023-12-20T20:48:47;13.60;66.30
19192;DHT22;9728;48.194;16.346;2023-12-20T20:53:54;13.40;66.20
19192;DHT22;9728;48.194;16.346;2023-12-20T20:59:16;13.30;66.20
19192;DHT22;9728;48.194;16.346;2023-12-20T21:04:20;13.30;66.30
19192;DHT22;9728;48.194;16.346;2023-12-20T21:09:23;13.20;66.30
19192;DHT22;9728;48.194;16.346;2023-12-20T21:14:28;13.20;66.20
19192;DHT22;9728;48.194;16.346;2023-12-20T21:19:31;13.10;66.20
19192;DHT22;9728;48.194;16.346;2023-12-20T21:24:35;13.10;66.30
19192;DHT22;9728;48.194;16.346;2023-12-20T21:29:39;13.00;66.40
19192;DHT22;9728;48.194;16.346;2023-12-20T21:34:43;13.00;66.50
19192;DHT22;9728;48.194;16.346;2023-12-20T21:39:46;13.00;66.60
19192;DHT22;9728;48.194;16.346;2023-12-20T21:44:53;13.00;66.40
19192;DHT22;9728;48.194;16.346;2023-12-20T21:49:56;13.00;66.30
19192;DHT22;9728;48.194;16.346;2023-12-20T21:55:00;13.00;66.30
19192;DHT22;9728;48.194;16.346;2023-12-20T22:00:07;12.90;66.40
19192;DHT22;9728;48.194;16.346;2023-12-20T22:05:11;12.90;66.40
19192;DHT22;9728;48.194;16.346;2023-12-20T22:10:15;12.90;66.50
19192;DHT22;9728;48.194;16.346;2023-12-20T22:15:19;12.90;66.50
19192;DHT22;9728;48.194;16.346;2023-12-20T22:20:23;12.80;66.50
19192;DHT22;9728;48.194;16.346;2023-12-20T22:25:27;12.80;66.50
19192;DHT22;9728;48.194;16.346;2023-12-20T22:30:32;12.80;66.60
19192;DHT22;9728;48.194;16.346;2023-12-20T22:35:35;12.80;66.70
19192;DHT22;9728;48.194;16.346;2023-12-20T22:40:39;12.80;66.70
19192;DHT22;9728;48.194;16.346;2023-12-20T22:45:43;12.90;66.70
19192;DHT22;9728;48.194;16.346;2023-12-20T22:50:47;13.00;66.40
19192;DHT22;9728;48.194;16.346;2023-12-20T22:55:50;13.00;66.50
19192;DHT22;9728;48.194;16.346;2023-12-20T23:00:55;13.10;66.50
19192;DHT22;9728;48.194;16.346;2023-12-20T23:05:58;13.10;66.40
19192;DHT22;9728;48.194;16.346;2023-12-20T23:11:02;13.10;66.40
19192;DHT22;9728;48.194;16.346;2023-12-20T23:16:07;13.10;66.40
19192;DHT22;9728;48.194;16.346;2023-12-20T23:21:13;13.20;66.40
19192;DHT22;9728;48.194;16.346;2023-12-20T23:26:17;13.20;66.20
19192;DHT22;9728;48.194;16.346;2023-12-20T23:31:23;13.20;66.20
19192;DHT22;9728;48.194;16.346;2023-12-20T23:36:26;13.20;66.00
19192;DHT22;9728;48.194;16.346;2023-12-20T23:41:30;13.20;66.20
19192;DHT22;9728;48.194;16.346;2023-12-20T23:46:34;13.10;66.20
19192;DHT22;9728;48.194;16.346;2023-12-20T23:51:38;13.10;66.30
19192;DHT22;9728;48.194;16.346;2023-12-20T23:56:43;13.20;66.20
